Terminal Aerodrome Forecast
Issued by NWS

Home | Current Version | Previous Version | Text Only | Print | Product List | Glossary On
Versions: 1 2 3 4 5 6 7 8 9 10 11 12
000
FTUS45 KRIW 281100
TAFCPR
TAF
KCPR 281120Z 2812/2912 VRB06KT P6SM SCT250
     FM281800 10007KT P6SM SCT120 BKN200
     FM282200 09011KT P6SM VCTS SCT080CB BKN150
     FM290400 VRB10G15KT P6SM VCSH SCT070 BKN120
     FM290900 09007KT P6SM VCSH SCT060 OVC100=

USA.gov is the U.S. government's official web portal to all federal, state and local government web resources and services.